Ocontofalls, Wisconsin
Current Conditions -  °F | °C
As of 5:55 AM on Thursday 27 Nov 2014 (Local Time) from KOCQ Reporting Station
Overcast Overcast  
Wind Chill: -15°   Ceiling: 8500
Heat Index: -8°   Visibility: 10mi
Dew Point: -12°   Wind: 10mph
Humidity: 76%   Direction: 330°NNW
Pressure: 30.29"   Gusts: 16mph
Location:  44.8816°N, 88.1735°W
Report Text: KOCQ 271155Z AUTO 33009G14KT 10SM SCT041 BKN085 OVC110 M08/M12 A3029 RMK AO1 T10841120 11047 21084
Loading
Personal Weather Stations






























Interactive Weather Map New forecast layout! Learn more

10-Day Weather Forecast

Advertisements
Track Severe Weather on mobile